Time;durP1;ratioP1;P1;durP2;ratioP2;P2;SDS_P1;SDS_P2;PMS_P1;PMS_P2;Temp;Humidity;BMP_temperature;BMP_pressure;BME280_temperature;BME280_humidity;BME280_pressure;Samples;Min_cycle;Max_cycle;Signal;HPM_P1;HPM_P2
2022/06/15 00:02:12;;;;;;;2.70;1.90;;;;;;;13.92;100.00;102239.50;5069495;28;20593;-67
2022/06/15 00:04:38;;;;;;;4.50;2.40;;;;;;;13.91;100.00;102231.56;5064770;28;20211;-65
2022/06/15 00:07:04;;;;;;;3.27;2.30;;;;;;;13.85;100.00;102229.63;5068159;28;20191;-65
2022/06/15 00:09:29;;;;;;;2.90;2.60;;;;;;;13.92;100.00;102230.56;5064228;28;20216;-66
2022/06/15 00:11:54;;;;;;;3.00;1.97;;;;;;;13.87;100.00;102236.50;5071624;28;20829;-65
2022/06/15 00:14:23;;;;;;;3.13;2.20;;;;;;;13.84;100.00;102236.06;5062382;28;20248;-65
2022/06/15 00:16:49;;;;;;;3.10;2.70;;;;;;;13.88;100.00;102224.69;5058361;28;20198;-65
2022/06/15 00:19:15;;;;;;;3.20;2.40;;;;;;;13.87;100.00;102233.00;5069272;28;20449;-65
2022/06/15 00:21:40;;;;;;;3.83;2.27;;;;;;;13.85;100.00;102226.94;5060158;28;20207;-65
2022/06/15 00:24:06;;;;;;;3.20;2.07;;;;;;;13.88;100.00;102221.16;5065044;28;20508;-65
2022/06/15 00:26:32;;;;;;;4.97;2.73;;;;;;;13.77;100.00;102223.31;5057285;28;20191;-65
2022/06/15 00:28:57;;;;;;;4.60;2.60;;;;;;;13.53;100.00;102183.16;5065195;28;20214;-65
2022/06/15 00:31:23;;;;;;;3.63;2.33;;;;;;;13.39;100.00;102183.97;5058180;28;20187;-68
2022/06/15 00:33:48;;;;;;;3.87;2.30;;;;;;;13.74;100.00;102222.84;5066579;28;20215;-67
2022/06/15 00:36:17;;;;;;;3.70;2.70;;;;;;;13.72;100.00;102220.34;5064466;28;20187;-67
2022/06/15 00:38:49;;;;;;;3.67;2.10;;;;;;;13.54;100.00;102187.53;5062286;28;20341;-67
2022/06/15 00:41:27;;;;;;;3.23;2.70;;;;;;;13.63;100.00;102205.28;5059801;28;20466;-68
2022/06/15 00:43:56;;;;;;;4.27;2.63;;;;;;;13.68;100.00;102216.34;5061859;28;20456;-66
2022/06/15 00:46:36;;;;;;;3.50;2.60;;;;;;;13.50;100.00;102219.38;5063724;28;20482;-66
2022/06/15 00:49:08;;;;;;;3.70;2.90;;;;;;;13.62;100.00;102218.94;5061671;28;20452;-66
2022/06/15 00:51:36;;;;;;;5.40;2.73;;;;;;;13.57;100.00;102216.81;5059130;28;20533;-66
2022/06/15 00:54:03;;;;;;;3.17;2.57;;;;;;;13.62;100.00;102217.06;5064811;28;20468;-66
2022/06/15 00:56:30;;;;;;;3.03;2.73;;;;;;;13.56;100.00;102213.25;5071243;28;20453;-66
2022/06/15 00:59:08;;;;;;;5.17;2.80;;;;;;;13.48;100.00;102216.06;5061759;28;20824;-67
2022/06/15 01:01:34;;;;;;;3.60;2.63;;;;;;;13.47;100.00;102211.69;5060220;28;20469;-66
2022/06/15 01:04:03;;;;;;;3.80;2.37;;;;;;;13.45;100.00;102212.88;5057046;28;20559;-66
2022/06/15 01:06:41;;;;;;;5.37;3.20;;;;;;;13.34;100.00;102206.94;5069511;28;20444;-66
2022/06/15 01:09:15;;;;;;;3.80;3.40;;;;;;;13.38;100.00;102207.38;5056007;28;20432;-67
2022/06/15 01:11:41;;;;;;;2.40;2.20;;;;;;;13.24;100.00;102211.69;5055049;28;20419;-67
2022/06/15 01:14:18;;;;;;;3.00;2.47;;;;;;;13.29;100.00;102203.94;5073012;28;20465;-67
2022/06/15 01:17:05;;;;;;;4.20;2.40;;;;;;;13.37;100.00;102203.03;5068709;28;20206;-67
2022/06/15 01:19:42;;;;;;;3.83;2.87;;;;;;;13.23;100.00;102198.44;5067773;28;20522;-67
2022/06/15 01:22:26;;;;;;;4.57;3.00;;;;;;;13.17;100.00;102205.38;5047448;28;20974;-67
2022/06/15 01:25:10;;;;;;;4.23;3.03;;;;;;;13.11;100.00;102208.81;5063187;28;20464;-67
2022/06/15 01:27:42;;;;;;;4.90;2.63;;;;;;;13.03;100.00;102201.63;5036283;28;20436;-67
2022/06/15 01:30:13;;;;;;;3.13;2.63;;;;;;;13.05;100.00;102198.75;5061831;28;20467;-67
2022/06/15 01:32:53;;;;;;;3.40;2.90;;;;;;;13.16;100.00;102202.84;5071602;28;20445;-67
2022/06/15 01:35:30;;;;;;;4.00;2.87;;;;;;;13.07;100.00;102207.47;5060370;28;20976;-67
2022/06/15 01:38:02;;;;;;;3.37;2.67;;;;;;;13.02;100.00;102207.22;5059130;28;20858;-67
2022/06/15 01:40:32;;;;;;;3.20;2.63;;;;;;;13.01;100.00;102206.34;5066410;28;20972;-67
2022/06/15 01:43:03;;;;;;;5.20;3.70;;;;;;;12.83;100.00;102187.00;5064356;28;20495;-67
2022/06/15 01:45:33;;;;;;;3.17;2.87;;;;;;;13.01;100.00;102200.97;5058628;28;20461;-67
2022/06/15 01:48:03;;;;;;;6.70;3.30;;;;;;;12.92;100.00;102187.75;5061627;28;20456;-67
2022/06/15 01:50:40;;;;;;;4.57;3.20;;;;;;;12.98;100.00;102200.50;5054069;28;20430;-67
2022/06/15 01:53:30;;;;;;;3.83;3.13;;;;;;;12.95;100.00;102204.38;5065164;28;20465;-67
2022/06/15 01:56:05;;;;;;;4.67;3.00;;;;;;;12.89;100.00;102188.94;5057395;28;20529;-67
2022/06/15 01:58:33;;;;;;;4.20;3.20;;;;;;;12.87;100.00;102199.91;5060717;28;20528;-67
2022/06/15 02:01:17;;;;;;;6.63;2.90;;;;;;;12.83;100.00;102203.16;5055383;28;20461;-68
2022/06/15 02:03:45;;;;;;;4.13;3.43;;;;;;;12.81;100.00;102194.41;5062652;28;20937;-67
2022/06/15 02:06:22;;;;;;;4.23;3.10;;;;;;;12.78;100.00;102194.75;5053465;28;20436;-67
2022/06/15 02:09:15;;;;;;;3.23;2.93;;;;;;;12.65;100.00;102190.81;5056820;28;20528;-67
2022/06/15 02:11:42;;;;;;;3.90;3.10;;;;;;;12.61;100.00;102168.00;5062929;28;20456;-67
2022/06/15 02:14:37;;;;;;;4.33;3.70;;;;;;;12.11;100.00;102104.75;5064128;28;20465;-67
2022/06/15 02:17:08;;;;;;;3.87;2.40;;;;;;;12.54;100.00;102160.81;5061391;28;20454;-67
2022/06/15 02:19:39;;;;;;;3.53;3.10;;;;;;;12.66;100.00;102181.72;5061213;28;20460;-67
2022/06/15 02:22:09;;;;;;;3.47;3.17;;;;;;;12.72;100.00;102185.56;5065203;28;20559;-67
2022/06/15 02:24:36;;;;;;;3.47;3.10;;;;;;;12.68;100.00;102168.09;5063681;28;20472;-67
2022/06/15 02:27:05;;;;;;;3.43;3.10;;;;;;;12.76;100.00;102184.19;5059014;28;20444;-67
2022/06/15 02:29:34;;;;;;;3.70;3.27;;;;;;;12.69;100.00;102182.38;5059611;28;20433;-67
2022/06/15 02:32:00;;;;;;;3.97;3.17;;;;;;;12.47;100.00;102138.28;5058697;28;20449;-67
2022/06/15 02:34:25;;;;;;;2.87;2.67;;;;;;;12.76;100.00;102169.91;5060548;28;21464;-67
2022/06/15 02:36:51;;;;;;;3.33;3.03;;;;;;;12.71;100.00;102170.44;5053032;28;20186;-67
2022/06/15 02:39:16;;;;;;;4.20;3.37;;;;;;;12.73;100.00;102181.00;5058283;28;20201;-67
2022/06/15 02:41:42;;;;;;;3.60;3.30;;;;;;;12.61;100.00;102162.59;5060015;28;20217;-67
2022/06/15 02:44:11;;;;;;;3.50;2.87;;;;;;;12.75;100.00;102174.41;5063568;28;20202;-67
2022/06/15 02:46:43;;;;;;;4.67;3.50;;;;;;;12.72;100.00;102171.25;5059302;28;20190;-67
2022/06/15 02:49:09;;;;;;;5.60;3.27;;;;;;;12.83;100.00;102182.44;5067549;28;21083;-67
2022/06/15 02:51:47;;;;;;;3.27;2.97;;;;;;;12.86;100.00;102175.84;5064730;28;20445;-67
2022/06/15 02:54:24;;;;;;;2.87;2.67;;;;;;;12.84;100.00;102175.19;5058768;28;20545;-67
2022/06/15 02:56:51;;;;;;;3.20;2.83;;;;;;;12.76;100.00;102172.59;5056275;28;20882;-67
2022/06/15 02:59:17;;;;;;;3.97;2.97;;;;;;;12.78;100.00;102174.06;5058207;28;20440;-67
2022/06/15 03:01:43;;;;;;;3.60;3.30;;;;;;;12.75;100.00;102179.81;5058510;28;20508;-68
2022/06/15 03:04:08;;;;;;;2.80;2.60;;;;;;;12.87;100.00;102178.38;5066214;28;20485;-67
2022/06/15 03:06:34;;;;;;;3.00;2.70;;;;;;;12.86;100.00;102176.69;5063444;28;20260;-67
2022/06/15 03:08:59;;;;;;;3.33;3.00;;;;;;;12.82;100.00;102175.38;5055631;28;20191;-67
2022/06/15 03:11:25;;;;;;;3.40;3.10;;;;;;;12.86;100.00;102174.00;5062608;28;20190;-68
2022/06/15 03:13:52;;;;;;;3.53;3.23;;;;;;;12.96;100.00;102172.91;5060113;28;20203;-68
2022/06/15 03:16:18;;;;;;;7.13;3.87;;;;;;;12.95;100.00;102171.22;5061711;28;20440;-67
2022/06/15 03:18:44;;;;;;;4.30;3.00;;;;;;;12.93;100.00;102176.81;5058319;28;20871;-67
2022/06/15 03:21:10;;;;;;;4.13;3.07;;;;;;;12.85;100.00;102164.25;5055604;28;20470;-68
2022/06/15 03:23:35;;;;;;;4.60;3.80;;;;;;;12.64;100.00;102153.31;5065478;28;20225;-67
2022/06/15 03:26:03;;;;;;;5.00;3.60;;;;;;;12.77;100.00;102169.69;5060755;28;20220;-68
2022/06/15 03:28:29;;;;;;;4.93;3.53;;;;;;;12.76;100.00;102176.13;5044730;28;20187;-67
2022/06/15 03:30:54;;;;;;;4.57;3.30;;;;;;;12.60;100.00;102120.53;5047440;28;21156;-68
2022/06/15 03:33:20;;;;;;;4.23;3.33;;;;;;;12.93;100.00;102173.25;5063953;28;20218;-68
2022/06/15 03:35:47;;;;;;;4.67;3.20;;;;;;;12.83;100.00;102146.59;5060984;28;20225;-68
2022/06/15 03:38:13;;;;;;;3.63;2.97;;;;;;;13.04;100.00;102164.75;5065223;28;20459;-68
2022/06/15 03:40:41;;;;;;;5.13;3.30;;;;;;;13.20;100.00;102166.47;5056036;28;20469;-68
2022/06/15 03:43:06;;;;;;;4.93;3.20;;;;;;;13.24;100.00;102167.75;5061434;28;20566;-68
2022/06/15 03:45:32;;;;;;;3.60;3.30;;;;;;;12.82;100.00;102091.91;5051273;28;20441;-68
2022/06/15 03:47:59;;;;;;;4.07;2.60;;;;;;;13.16;100.00;102160.59;5061327;28;20456;-68
2022/06/15 03:50:27;;;;;;;4.93;3.07;;;;;;;13.11;100.00;102147.69;5050329;28;20193;-68
2022/06/15 03:52:53;;;;;;;3.83;3.07;;;;;;;13.29;100.00;102144.66;5043859;28;20552;-68
2022/06/15 03:55:19;;;;;;;3.73;2.93;;;;;;;13.33;100.00;102154.03;5060293;28;20609;-68
2022/06/15 03:57:46;;;;;;;4.67;3.30;;;;;;;13.36;100.00;102142.06;5063147;28;20714;-68
2022/06/15 04:00:15;;;;;;;2.43;2.23;;;;;;;13.39;100.00;102152.47;5049357;28;20464;-67
2022/06/15 04:02:40;;;;;;;3.70;2.73;;;;;;;13.42;100.00;102168.25;5062455;28;20443;-68
2022/06/15 04:05:06;;;;;;;3.40;3.10;;;;;;;13.39;100.00;102160.53;5061813;28;20465;-68
2022/06/15 04:10:16;;;;;;;4.30;2.90;;;;;;;13.43;100.00;102156.47;5064312;28;20486;-68
2022/06/15 04:12:45;;;;;;;3.30;2.93;;;;;;;13.39;100.00;102154.31;5054868;28;20472;-68
2022/06/15 04:15:11;;;;;;;3.33;2.80;;;;;;;13.26;100.00;102158.50;5060533;28;20257;-68
2022/06/15 04:17:38;;;;;;;3.50;3.00;;;;;;;13.35;100.00;102161.94;5037016;28;20941;-68
2022/06/15 04:22:49;;;;;;;5.17;3.50;;;;;;;13.42;100.00;102162.88;5060821;28;20491;-68
2022/06/15 04:25:14;;;;;;;3.70;3.03;;;;;;;13.26;100.00;102114.56;5061781;28;20901;-69
2022/06/15 04:27:40;;;;;;;3.37;2.80;;;;;;;13.16;100.00;102078.94;5058125;28;21717;-67
2022/06/15 04:30:06;;;;;;;4.90;3.13;;;;;;;13.52;100.00;102152.66;5061185;28;20273;-67
2022/06/15 04:32:31;;;;;;;3.83;3.27;;;;;;;13.62;100.00;102165.84;5063039;28;20289;-68
2022/06/15 04:34:57;;;;;;;3.13;2.93;;;;;;;13.70;100.00;102163.06;5048424;28;20472;-67
2022/06/15 04:37:22;;;;;;;3.97;2.83;;;;;;;13.75;100.00;102157.94;5066444;28;20215;-67
2022/06/15 04:39:48;;;;;;;5.50;3.47;;;;;;;13.74;100.00;102145.50;5062838;28;20186;-67
2022/06/15 04:42:13;;;;;;;3.43;2.77;;;;;;;13.87;100.00;102160.16;5059024;28;22263;-67
2022/06/15 04:44:38;;;;;;;3.67;2.97;;;;;;;13.87;100.00;102157.47;5064516;28;20207;-67
2022/06/15 04:47:04;;;;;;;4.60;4.20;;;;;;;13.78;100.00;102137.88;5075900;28;20189;-67
2022/06/15 04:49:29;;;;;;;5.63;3.10;;;;;;;13.94;100.00;102164.63;5073029;28;20218;-67
2022/06/15 04:51:55;;;;;;;3.20;2.90;;;;;;;13.95;100.00;102168.16;5066840;28;20274;-69
2022/06/15 04:54:20;;;;;;;5.07;3.60;;;;;;;13.95;100.00;102166.28;5066667;28;20211;-67
2022/06/15 04:56:46;;;;;;;3.60;3.07;;;;;;;13.92;100.00;102144.25;5069013;28;20220;-67
2022/06/15 04:59:12;;;;;;;3.03;2.70;;;;;;;14.04;100.00;102167.03;5062496;28;20273;-67
2022/06/15 05:01:38;;;;;;;2.83;2.60;;;;;;;14.11;100.00;102170.63;5067933;28;20203;-67
2022/06/15 05:04:04;;;;;;;3.93;2.73;;;;;;;14.07;100.00;102166.63;5066844;28;20873;-67
2022/06/15 05:06:38;;;;;;;4.53;3.50;;;;;;;14.14;100.00;102172.94;5070509;28;20436;-67
2022/06/15 05:09:06;;;;;;;4.27;3.20;;;;;;;14.17;100.00;102175.25;5063573;28;20190;-67
2022/06/15 05:11:32;;;;;;;4.40;2.97;;;;;;;14.17;100.00;102177.94;5062036;28;20920;-68
2022/06/15 05:13:58;;;;;;;3.50;3.07;;;;;;;14.15;100.00;102187.28;5045456;28;20555;-67
2022/06/15 05:16:24;;;;;;;2.80;2.60;;;;;;;14.20;100.00;102184.84;5059982;28;20464;-67
2022/06/15 05:18:49;;;;;;;3.93;3.07;;;;;;;14.19;100.00;102189.41;5068611;28;20685;-67
2022/06/15 05:21:15;;;;;;;3.17;2.87;;;;;;;14.30;100.00;102179.97;5068097;28;20207;-67
2022/06/15 05:23:40;;;;;;;3.53;3.23;;;;;;;14.28;100.00;102186.59;5067414;28;20249;-67
2022/06/15 05:26:06;;;;;;;4.57;3.20;;;;;;;13.99;100.00;102148.69;5044954;28;20187;-68
2022/06/15 05:28:31;;;;;;;4.20;3.00;;;;;;;14.36;100.00;102187.31;5069241;28;20179;-68
2022/06/15 05:31:10;;;;;;;3.43;3.13;;;;;;;14.32;100.00;102188.72;5061957;28;20191;-68
2022/06/15 05:33:36;;;;;;;3.23;2.93;;;;;;;14.36;100.00;102183.78;5071984;28;20280;-68
2022/06/15 05:36:07;;;;;;;6.23;3.23;;;;;;;14.40;100.00;102185.06;5065916;28;20437;-68
2022/06/15 05:38:33;;;;;;;5.07;3.50;;;;;;;14.42;100.00;102183.84;5062421;28;20491;-68
2022/06/15 05:40:59;;;;;;;6.10;3.53;;;;;;;14.37;100.00;102170.06;5068856;28;20563;-67
2022/06/15 05:43:24;;;;;;;2.90;2.60;;;;;;;14.43;100.00;102181.97;5071537;28;20449;-68
2022/06/15 05:45:50;;;;;;;5.60;3.90;;;;;;;14.48;100.00;102182.25;5060210;28;20186;-68
2022/06/15 05:48:15;;;;;;;3.40;2.97;;;;;;;14.53;100.00;102182.53;5069030;28;20199;-68
2022/06/15 05:50:40;;;;;;;4.93;2.70;;;;;;;14.60;100.00;102183.44;5062228;28;20220;-68
2022/06/15 05:53:06;;;;;;;3.57;3.27;;;;;;;14.33;100.00;102132.88;5062995;28;20199;-66
2022/06/15 05:55:31;;;;;;;3.10;2.80;;;;;;;14.60;100.00;102194.22;5068029;28;20214;-66
2022/06/15 05:57:57;;;;;;;3.43;3.03;;;;;;;14.61;100.00;102179.72;5058065;28;20175;-67
2022/06/15 06:00:25;;;;;;;3.97;3.00;;;;;;;14.71;100.00;102187.47;5060949;28;20727;-68
2022/06/15 06:02:51;;;;;;;5.37;3.00;;;;;;;14.77;100.00;102191.28;5061689;28;20186;-68
2022/06/15 06:05:16;;;;;;;3.87;3.27;;;;;;;14.80;100.00;102180.09;5062006;28;20464;-67
2022/06/15 06:07:42;;;;;;;5.13;3.00;;;;;;;14.90;100.00;102186.84;5062200;28;20452;-67
2022/06/15 06:10:08;;;;;;;3.20;2.73;;;;;;;14.92;100.00;102182.06;5071642;28;20190;-68
2022/06/15 06:12:33;;;;;;;2.50;2.10;;;;;;;15.09;100.00;102187.19;5070125;28;20187;-67
2022/06/15 06:14:59;;;;;;;3.40;2.23;;;;;;;15.13;100.00;102193.88;5047648;28;20559;-68
2022/06/15 06:17:24;;;;;;;4.70;3.00;;;;;;;15.15;100.00;102192.63;5040621;28;20198;-68
2022/06/15 06:19:49;;;;;;;2.40;2.20;;;;;;;15.17;100.00;102187.06;5061371;28;20194;-69
2022/06/15 06:22:15;;;;;;;5.00;2.80;;;;;;;15.06;100.00;102152.44;5030741;28;20702;-66
2022/06/15 06:24:40;;;;;;;3.80;2.90;;;;;;;15.27;100.00;102165.91;5062989;28;20213;-66
2022/06/15 06:27:07;;;;;;;3.70;2.57;;;;;;;15.35;100.00;102183.84;5050851;28;20650;-66
2022/06/15 06:29:33;;;;;;;3.07;2.53;;;;;;;15.39;100.00;102168.91;5062857;28;20221;-65
2022/06/15 06:32:00;;;;;;;2.00;1.87;;;;;;;15.46;100.00;102163.53;5048842;28;20527;-65
2022/06/15 06:34:29;;;;;;;4.40;2.63;;;;;;;15.61;100.00;102166.94;5059597;28;20461;-64
2022/06/15 06:36:56;;;;;;;2.00;1.80;;;;;;;15.20;100.00;102091.22;5059759;28;20507;-66
2022/06/15 06:39:25;;;;;;;2.50;1.70;;;;;;;15.66;100.00;102169.06;5058730;28;20450;-66
2022/06/15 06:41:51;;;;;;;2.80;1.77;;;;;;;15.73;100.00;102165.38;5059540;28;20464;-67
2022/06/15 06:44:16;;;;;;;2.10;1.50;;;;;;;15.56;100.00;102129.69;5052343;28;20464;-66
2022/06/15 06:46:45;;;;;;;1.60;1.50;;;;;;;15.63;100.00;102132.44;5039643;28;20943;-66
2022/06/15 06:49:11;;;;;;;2.17;1.30;;;;;;;15.79;100.00;102156.47;5039631;28;20201;-66
2022/06/15 06:51:38;;;;;;;2.50;1.60;;;;;;;15.75;100.00;102147.06;5028337;28;20445;-67
2022/06/15 06:54:06;;;;;;;1.63;1.13;;;;;;;15.79;100.00;102153.78;5034141;28;20472;-67
2022/06/15 06:56:34;;;;;;;4.47;1.60;;;;;;;15.78;100.00;102135.84;5045809;28;20506;-67
2022/06/15 06:59:00;;;;;;;2.80;1.30;;;;;;;15.84;100.00;102136.09;5051672;28;20997;-67
2022/06/15 07:01:25;;;;;;;1.00;0.90;;;;;;;16.05;100.00;102163.00;5056247;28;20460;-67
2022/06/15 07:03:50;;;;;;;2.60;1.40;;;;;;;16.14;100.00;102166.38;5051700;28;20213;-66
2022/06/15 07:06:16;;;;;;;3.53;1.47;;;;;;;16.15;100.00;102168.06;5042922;28;20195;-67
2022/06/15 07:08:41;;;;;;;1.50;1.10;;;;;;;16.14;100.00;102156.41;5054113;28;20198;-67
2022/06/15 07:11:12;;;;;;;2.30;1.23;;;;;;;16.23;100.00;102171.41;5052085;28;20571;-67
2022/06/15 07:13:38;;;;;;;1.20;0.90;;;;;;;16.20;100.00;102171.81;5057814;28;20199;-67
2022/06/15 07:16:05;;;;;;;1.23;0.90;;;;;;;16.15;100.00;102155.34;5051146;28;21031;-66
2022/06/15 07:18:30;;;;;;;3.07;1.40;;;;;;;16.30;100.00;102178.72;5061694;28;20194;-67
2022/06/15 07:21:01;;;;;;;2.77;1.23;;;;;;;16.32;100.00;102187.47;5055126;28;20525;-67
2022/06/15 07:23:27;;;;;;;3.90;1.47;;;;;;;16.36;100.00;102188.72;5059863;28;20218;-67
2022/06/15 07:25:52;;;;;;;1.47;1.00;;;;;;;16.39;100.00;102181.00;5046911;28;20440;-67
2022/06/15 07:28:18;;;;;;;2.37;1.37;;;;;;;16.33;100.00;102167.47;5046673;28;20245;-67
2022/06/15 07:30:43;;;;;;;3.77;1.90;;;;;;;16.41;100.00;102192.50;5055408;28;20195;-67
2022/06/15 07:33:08;;;;;;;1.57;1.23;;;;;;;16.45;100.00;102188.31;5056104;28;20198;-67
2022/06/15 07:35:36;;;;;;;1.83;1.20;;;;;;;16.50;100.00;102195.84;5066466;28;20218;-67
2022/06/15 07:38:01;;;;;;;2.87;1.10;;;;;;;16.54;100.00;102204.38;5053071;28;20607;-67
2022/06/15 07:40:27;;;;;;;3.07;1.47;;;;;;;16.33;100.00;102156.63;5052555;28;20465;-66
2022/06/15 07:42:54;;;;;;;3.40;1.60;;;;;;;16.57;100.00;102190.44;5051424;28;20240;-67
2022/06/15 07:45:22;;;;;;;2.60;1.33;;;;;;;16.59;100.00;102196.47;5052027;28;20206;-64
2022/06/15 07:50:33;;;;;;;2.00;1.37;;;;;;;16.65;100.00;102191.06;5057647;28;20436;-65
2022/06/15 07:52:58;;;;;;;1.87;0.90;;;;;;;16.64;100.00;102189.41;5056965;28;20967;-67
2022/06/15 07:55:28;;;;;;;3.47;1.20;;;;;;;16.57;100.00;102171.47;5061065;28;20460;-67
2022/06/15 07:57:54;;;;;;;2.90;1.20;;;;;;;16.59;100.00;102191.06;5058271;28;20211;-67
2022/06/15 08:00:22;;;;;;;1.83;0.90;;;;;;;16.63;100.00;102187.72;5063439;28;20444;-67
2022/06/15 08:02:49;;;;;;;2.07;1.40;;;;;;;16.67;100.00;102188.16;5063605;22;20563;-68
2022/06/15 08:05:15;;;;;;;1.00;0.90;;;;;;;16.74;100.00;102186.28;5042760;28;20524;-68
2022/06/15 08:07:42;;;;;;;2.10;1.10;;;;;;;16.57;100.00;102166.06;5042451;28;21105;-68
2022/06/15 08:10:09;;;;;;;2.30;1.10;;;;;;;16.64;100.00;102158.78;5038133;28;20452;-68
2022/06/15 08:12:34;;;;;;;1.53;0.93;;;;;;;16.71;100.00;102165.03;5056298;28;20556;-68
2022/06/15 08:15:03;;;;;;;1.63;1.07;;;;;;;16.85;100.00;102187.59;5050817;28;20440;-68
2022/06/15 08:17:33;;;;;;;1.50;1.03;;;;;;;16.92;100.00;102189.25;5055351;28;20279;-68
2022/06/15 08:20:08;;;;;;;1.30;0.90;;;;;;;16.88;100.00;102192.59;5050249;28;20464;-68
2022/06/15 08:22:34;;;;;;;1.57;0.90;;;;;;;16.56;100.00;102157.09;5049650;28;21252;-68
2022/06/15 08:25:03;;;;;;;1.00;0.80;;;;;;;16.69;100.00;102157.13;5039434;28;20964;-68
2022/06/15 08:27:29;;;;;;;3.63;1.20;;;;;;;16.99;100.00;102188.44;5043859;28;20475;-67
2022/06/15 08:29:55;;;;;;;1.63;1.00;;;;;;;16.86;100.00;102176.53;5044505;28;20996;-68
2022/06/15 08:32:21;;;;;;;2.37;1.00;;;;;;;16.97;100.00;102180.50;5059600;28;20552;-67
2022/06/15 08:34:47;;;;;;;3.03;0.83;;;;;;;17.00;100.00;102173.81;5067006;28;20187;-68
2022/06/15 08:37:17;;;;;;;1.77;0.80;;;;;;;17.10;100.00;102179.66;5065707;28;20199;-68
2022/06/15 08:39:43;;;;;;;2.07;0.83;;;;;;;16.90;100.00;102125.47;5057542;28;20210;-68
2022/06/15 08:42:41;;;;;;;1.67;0.80;;;;;;;17.06;100.00;102164.84;5065208;28;20596;-68
2022/06/15 08:45:14;;;;;;;2.70;1.10;;;;;;;17.10;100.00;102150.69;5061974;28;20451;-68
2022/06/15 08:47:49;;;;;;;1.07;0.87;;;;;;;17.23;100.00;102173.38;5051609;28;21000;-68
2022/06/15 08:50:28;;;;;;;1.53;0.70;;;;;;;17.21;100.00;102170.88;5066616;28;20502;-68
2022/06/15 08:53:01;;;;;;;1.83;1.10;;;;;;;17.20;100.00;102165.69;5064578;28;20971;-68
2022/06/15 08:55:36;;;;;;;1.87;0.90;;;;;;;17.23;100.00;102168.78;5064840;28;20435;-68
2022/06/15 08:58:34;;;;;;;2.80;1.43;;;;;;;17.28;100.00;102141.06;5055571;28;20455;-68
2022/06/15 09:01:06;;;;;;;1.67;1.20;;;;;;;17.40;100.00;102163.75;5045670;28;20530;-67
2022/06/15 09:03:55;;;;;;;1.30;0.83;;;;;;;17.47;100.00;102167.28;5056197;28;20497;-68
2022/06/15 09:06:45;;;;;;;2.30;1.00;;;;;;;17.60;100.00;102169.13;5052948;28;20468;-68
2022/06/15 09:09:41;;;;;;;1.13;0.83;;;;;;;17.56;100.00;102162.44;5054286;28;25774;-68
2022/06/15 09:15:33;;;;;;;3.23;1.20;;;;;;;17.64;100.00;102156.81;5047814;28;20429;-67
2022/06/15 09:18:12;;;;;;;3.47;1.10;;;;;;;17.67;100.00;102160.97;5044084;28;20449;-67
2022/06/15 09:20:46;;;;;;;1.33;1.00;;;;;;;17.70;100.00;102160.53;5039868;28;20460;-68
2022/06/15 09:23:22;;;;;;;2.70;1.17;;;;;;;17.72;100.00;102161.16;5045539;28;20552;-68
2022/06/15 09:25:56;;;;;;;2.13;1.00;;;;;;;17.54;100.00;102140.16;5061365;28;20417;-68
2022/06/15 09:28:45;;;;;;;1.10;1.00;;;;;;;17.67;100.00;102141.97;5054561;28;20428;-68
2022/06/15 09:31:16;;;;;;;1.60;1.30;;;;;;;17.86;100.00;102167.41;5056119;28;20564;-68
2022/06/15 09:33:53;;;;;;;1.70;1.20;;;;;;;17.75;100.00;102114.59;5061268;28;20465;-68
2022/06/15 09:36:29;;;;;;;2.30;1.10;;;;;;;18.17;100.00;102158.50;5066441;28;20507;-68
2022/06/15 09:38:55;;;;;;;2.00;1.20;;;;;;;17.90;100.00;102134.19;5066421;28;20444;-68
2022/06/15 09:41:46;;;;;;;2.80;1.60;;;;;;;17.78;100.00;102097.91;5066404;28;20469;-68
2022/06/15 09:44:26;;;;;;;3.60;1.80;;;;;;;18.32;100.00;102166.34;5068050;28;20202;-68
2022/06/15 09:47:29;;;;;;;3.47;1.40;;;;;;;18.21;100.00;102157.84;5066972;28;20432;-69
2022/06/15 09:50:16;;;;;;;4.03;1.77;;;;;;;17.96;100.00;102136.03;5065986;28;20448;-69
2022/06/15 09:53:06;;;;;;;3.13;1.70;;;;;;;18.30;100.00;102161.97;5036297;28;20480;-68
2022/06/15 09:55:41;;;;;;;1.57;1.23;;;;;;;18.35;100.00;102165.91;5066168;28;20519;-69
2022/06/15 09:58:12;;;;;;;2.80;1.63;;;;;;;18.26;100.00;102154.47;5073484;28;20834;-69
2022/06/15 10:00:37;;;;;;;3.47;1.20;;;;;;;18.12;100.00;102109.44;5073508;28;20457;-68
2022/06/15 10:03:11;;;;;;;2.30;1.23;;;;;;;18.36;100.00;102151.28;5072033;28;20538;-68
2022/06/15 10:05:40;;;;;;;4.60;1.50;;;;;;;18.43;100.00;102149.38;5067776;28;20643;-68
2022/06/15 10:08:11;;;;;;;3.30;1.60;;;;;;;18.40;100.00;102128.03;5075020;28;20474;-68
2022/06/15 10:10:48;;;;;;;2.17;1.63;;;;;;;18.27;100.00;102108.06;5076410;28;20497;-68
2022/06/15 10:13:13;;;;;;;2.60;1.57;;;;;;;18.42;100.00;102150.41;5068685;28;20825;-68
2022/06/15 10:15:39;;;;;;;3.57;1.77;;;;;;;18.43;100.00;102141.22;5073090;28;20443;-68
2022/06/15 10:18:26;;;;;;;3.47;2.07;;;;;;;18.51;100.00;102135.50;5075158;28;20194;-68
2022/06/15 10:21:44;;;;;;;3.90;2.00;;;;;;;18.56;100.00;102143.00;5071392;28;20210;-68
2022/06/15 10:24:14;;;;;;;2.80;1.70;;;;;;;18.52;100.00;102124.41;5073197;28;20472;-68
2022/06/15 10:26:52;;;;;;;3.60;1.70;;;;;;;18.56;100.00;102132.94;5074540;28;20432;-68
2022/06/15 10:29:22;;;;;;;4.13;1.90;;;;;;;18.50;100.00;102129.22;5077048;28;20792;-68
2022/06/15 10:32:13;;;;;;;2.07;1.60;;;;;;;18.43;100.00;102112.16;5071575;28;20417;-68
2022/06/15 10:34:42;;;;;;;2.53;1.53;;;;;;;18.61;100.00;102132.31;5070747;28;20428;-68
2022/06/15 10:37:20;;;;;;;2.90;1.60;;;;;;;18.23;100.00;102074.28;5074386;28;20421;-68
2022/06/15 10:39:52;;;;;;;2.77;1.70;;;;;;;18.60;100.00;102114.31;5073018;28;20439;-68
2022/06/15 10:42:25;;;;;;;3.33;1.70;;;;;;;18.64;100.00;102118.28;5066240;28;20491;-68
2022/06/15 10:44:54;;;;;;;3.07;2.07;;;;;;;18.45;100.00;102101.88;5056527;28;20433;-68
2022/06/15 10:47:38;;;;;;;4.13;2.23;;;;;;;18.49;100.00;102089.53;5056572;28;20436;-68
2022/06/15 10:50:08;;;;;;;1.93;1.33;;;;;;;18.85;100.00;102115.19;5067461;28;20431;-68
2022/06/15 10:52:38;;;;;;;3.20;1.60;;;;;;;18.92;100.00;102096.94;5065673;28;20902;-68
2022/06/15 11:04:24;;;;;;;1.47;1.30;;;;;;;19.10;100.00;102122.50;5065502;28;20506;-68
2022/06/15 11:06:53;;;;;;;2.63;1.50;;;;;;;19.13;100.00;102116.59;5065180;28;20433;-68
2022/06/15 11:09:21;;;;;;;2.80;1.50;;;;;;;18.93;100.00;102114.91;5068867;28;20452;-68
2022/06/15 11:11:48;;;;;;;2.50;1.60;;;;;;;19.01;100.00;102113.78;5066803;28;20425;-68
2022/06/15 11:14:31;;;;;;;2.53;1.40;;;;;;;19.03;100.00;102117.09;5068375;28;20530;-68
2022/06/15 11:20:05;;;;;;;3.63;1.53;;;;;;;19.10;100.00;102107.00;5068829;28;20931;-68
2022/06/15 11:22:33;;;;;;;2.63;1.50;;;;;;;19.17;100.00;102099.59;5068399;28;20482;-68
2022/06/15 11:25:13;;;;;;;2.83;1.50;;;;;;;19.11;100.00;102100.50;5064779;28;21002;-68
2022/06/15 11:27:48;;;;;;;1.40;1.13;;;;;;;19.06;100.00;102100.34;5070859;28;20452;-68
2022/06/15 11:30:25;;;;;;;1.57;1.17;;;;;;;18.94;100.00;102102.97;5066611;28;20435;-68
2022/06/15 11:33:10;;;;;;;4.80;1.60;;;;;;;18.88;100.00;102101.13;5037112;28;20464;-68
2022/06/15 11:36:00;;;;;;;2.37;1.60;;;;;;;18.81;100.00;102094.13;5066513;28;20444;-68
2022/06/15 11:38:37;;;;;;;3.47;1.57;;;;;;;18.85;100.00;102090.72;5059486;28;20502;-68
2022/06/15 11:41:20;;;;;;;2.45;1.20;;;;;;;18.80;100.00;102076.13;5065173;28;20464;-68
2022/06/15 11:43:47;;;;;;;2.40;1.27;;;;;;;19.11;100.00;102083.34;5069716;28;20491;-68
2022/06/15 11:46:48;;;;;;;3.90;1.40;;;;;;;19.15;100.00;102090.84;5069648;28;20511;-68
2022/06/15 11:49:23;;;;;;;2.50;1.10;;;;;;;19.13;100.00;102090.22;5069465;28;20491;-68
2022/06/15 11:52:08;;;;;;;1.40;1.30;;;;;;;19.14;100.00;102091.06;5071304;28;20457;-68
2022/06/15 11:54:46;;;;;;;1.97;1.30;;;;;;;18.77;100.00;102030.38;5066319;28;20456;-68
2022/06/15 11:57:38;;;;;;;1.60;1.20;;;;;;;19.16;100.00;102095.22;5039201;28;20867;-68